Terminal Aerodrome Forecast
Issued by NWS Louisville, KY

Home | Current Version | Previous Version | Text Only | Print | Product List | Glossary On
Versions: 1 2 3 4 5 6 7 8 9 10 11 12 13 14 15 16 17 18 19 20 21 22 23 24 25 26
600
FTUS43 KLMK 162324
TAFLEX
TAF
KLEX 162324Z 1700/1724 15005KT P6SM VCSH SCT045 BKN090
      TEMPO 1703/1707 4SM -SHRA BR BKN025
     FM170700 18011KT 4SM -SHRA BR OVC022 WS020/20050KT
     FM170900 19013KT 4SM -SHRA BR OVC012 WS020/20048KT
     FM171200 20014G19KT 6SM -SHRA BR OVC008
     FM171600 22014G21KT P6SM OVC018
     FM171800 24013G18KT P6SM SCT022 BKN040=

USA.gov is the U.S. government's official web portal to all federal, state and local government web resources and services.